createdAt,value
2019-02-06T00:01:33.579Z,29.83
2019-02-06T00:04:02.927Z,27.80
2019-02-06T00:06:32.739Z,26.30
2019-02-06T00:09:02.071Z,29.60
2019-02-06T00:11:31.417Z,30.60
2019-02-06T00:14:00.755Z,27.43
2019-02-06T00:16:30.167Z,29.50
2019-02-06T00:18:59.599Z,30.60
2019-02-06T00:21:28.918Z,29.47
2019-02-06T00:23:58.434Z,29.20
2019-02-06T00:26:27.789Z,31.33
2019-02-06T00:28:56.804Z,33.23
2019-02-06T00:31:26.115Z,30.33
2019-02-06T00:33:55.499Z,31.70
2019-02-06T00:36:24.895Z,32.33
2019-02-06T00:38:54.402Z,32.07
2019-02-06T00:41:23.425Z,30.93
2019-02-06T00:43:52.673Z,33.70
2019-02-06T00:46:22.006Z,30.57
2019-02-06T00:48:51.370Z,31.73
2019-02-06T00:51:20.706Z,30.00
2019-02-06T00:53:49.981Z,33.50
2019-02-06T00:56:19.268Z,31.53
2019-02-06T00:58:48.589Z,30.53
2019-02-06T01:01:17.926Z,29.93
2019-02-06T01:03:47.277Z,31.70
2019-02-06T01:06:16.281Z,31.27
2019-02-06T01:08:45.868Z,31.90
2019-02-06T01:11:15.233Z,30.23
2019-02-06T01:13:44.565Z,30.73
2019-02-06T01:16:13.905Z,31.80
2019-02-06T01:18:43.268Z,31.27
2019-02-06T01:21:12.278Z,31.13
2019-02-06T01:23:41.885Z,31.70
2019-02-06T01:26:11.254Z,31.87
2019-02-06T01:28:40.590Z,33.00
2019-02-06T01:31:11.192Z,30.80
2019-02-06T01:33:40.547Z,30.13
2019-02-06T01:36:09.884Z,32.23
2019-02-06T01:38:39.209Z,31.27
2019-02-06T01:41:08.578Z,27.73
2019-02-06T01:43:37.978Z,30.80
2019-02-06T01:46:07.399Z,31.40
2019-02-06T01:48:36.419Z,32.13
2019-02-06T01:51:05.662Z,28.30
2019-02-06T01:53:34.990Z,30.07
2019-02-06T01:56:04.601Z,29.90
2019-02-06T01:58:33.926Z,29.03
2019-02-06T02:01:03.526Z,30.17
2019-02-06T02:03:32.889Z,30.07
2019-02-06T02:06:02.835Z,28.93
2019-02-06T02:08:34.033Z,30.27
2019-02-06T02:11:03.676Z,29.93
2019-02-06T02:13:33.015Z,31.17
2019-02-06T02:16:02.345Z,30.67
2019-02-06T02:18:31.790Z,31.57
2019-02-06T02:21:01.127Z,34.40
2019-02-06T02:23:30.129Z,33.40
2019-02-06T02:25:59.858Z,32.73
2019-02-06T02:28:29.198Z,35.07
2019-02-06T02:30:58.542Z,33.50
2019-02-06T02:33:27.907Z,33.63
2019-02-06T02:35:57.245Z,32.03
2019-02-06T02:38:26.582Z,33.40
2019-02-06T02:40:56.026Z,32.13
2019-02-06T02:43:25.361Z,34.50
2019-02-06T02:45:54.700Z,30.53
2019-02-06T02:48:24.061Z,29.43
2019-02-06T02:50:53.395Z,30.07
2019-02-06T02:53:22.721Z,31.77
2019-02-06T02:55:52.364Z,29.30
2019-02-06T02:58:21.689Z,33.33
2019-02-06T03:01:04.782Z,32.90
2019-02-06T03:03:38.670Z,30.53
2019-02-06T03:06:08.445Z,30.77
2019-02-06T03:08:37.840Z,32.27
2019-02-06T03:11:07.211Z,32.00
2019-02-06T03:13:36.550Z,30.53
2019-02-06T03:16:05.981Z,28.13
2019-02-06T03:18:35.314Z,28.63
2019-02-06T03:21:05.029Z,29.50
2019-02-06T03:23:34.391Z,28.10
2019-02-06T03:26:03.866Z,28.73
2019-02-06T03:28:33.221Z,30.87
2019-02-06T03:31:02.557Z,28.80
2019-02-06T03:33:32.000Z,29.03
2019-02-06T03:36:01.722Z,30.13
2019-02-06T03:38:31.176Z,28.53
2019-02-06T03:41:00.506Z,28.60
2019-02-06T03:43:29.853Z,30.17
2019-02-06T03:45:59.206Z,28.00
2019-02-06T03:48:28.540Z,28.30
2019-02-06T03:50:57.866Z,30.70
2019-02-06T03:53:27.230Z,29.67
2019-02-06T03:55:56.563Z,30.20
2019-02-06T03:58:25.894Z,31.20
2019-02-06T04:00:55.258Z,28.90
2019-02-06T04:03:24.590Z,30.87
2019-02-06T04:05:53.926Z,28.73
2019-02-06T04:08:23.362Z,28.30
2019-02-06T04:10:52.698Z,28.67
2019-02-06T04:13:22.038Z,30.07
2019-02-06T04:15:51.391Z,27.70
2019-02-06T04:18:20.725Z,29.67
2019-02-06T04:20:50.222Z,29.23
2019-02-06T04:23:19.958Z,28.77
2019-02-06T04:25:49.349Z,30.67
2019-02-06T04:28:18.679Z,31.87
2019-02-06T04:30:48.050Z,28.53
2019-02-06T04:33:17.388Z,30.07
2019-02-06T04:35:46.714Z,31.70
2019-02-06T04:38:16.350Z,29.77
2019-02-06T04:40:45.692Z,29.93
2019-02-06T04:43:15.022Z,30.30
2019-02-06T04:45:44.390Z,31.43
2019-02-06T04:48:13.723Z,32.43
2019-02-06T04:50:43.073Z,31.57
2019-02-06T04:53:12.684Z,31.80
2019-02-06T04:55:42.012Z,31.03
2019-02-06T04:58:11.341Z,31.43
2019-02-06T05:00:40.709Z,31.03
2019-02-06T05:03:09.718Z,29.53
2019-02-06T05:05:38.953Z,30.60
2019-02-06T05:08:09.596Z,29.03
2019-02-06T05:10:38.585Z,30.00
2019-02-06T05:13:07.841Z,29.60
2019-02-06T05:15:37.206Z,35.30
2019-02-06T05:18:06.279Z,33.97
2019-02-06T05:20:37.357Z,35.50
2019-02-06T05:23:07.869Z,34.23
2019-02-06T05:25:37.116Z,34.90
2019-02-06T05:28:06.585Z,33.07
2019-02-06T05:30:35.670Z,32.50
2019-02-06T05:33:04.947Z,30.30
2019-02-06T05:35:34.286Z,32.90
2019-02-06T05:38:03.808Z,34.00
2019-02-06T05:40:33.143Z,31.67
2019-02-06T05:43:02.473Z,32.93
2019-02-06T05:45:31.502Z,31.13
2019-02-06T05:48:00.742Z,32.70
2019-02-06T05:50:30.089Z,30.83
2019-02-06T05:52:59.494Z,31.60
2019-02-06T05:55:29.109Z,30.00
2019-02-06T05:57:58.438Z,33.83
2019-02-06T06:00:29.186Z,31.33
2019-02-06T06:02:58.434Z,33.33
2019-02-06T06:05:27.777Z,31.23
2019-02-06T06:07:57.138Z,33.27
2019-02-06T06:10:26.418Z,31.73
2019-02-06T06:12:55.439Z,31.50
2019-02-06T06:15:24.438Z,32.90
2019-02-06T06:17:53.680Z,32.20
2019-02-06T06:20:23.094Z,33.30
2019-02-06T06:22:52.437Z,34.27
2019-02-06T06:25:21.514Z,33.33
2019-02-06T06:27:50.922Z,34.90
2019-02-06T06:30:21.028Z,34.50
2019-02-06T06:32:50.363Z,29.90
2019-02-06T06:35:19.358Z,32.07
2019-02-06T06:37:57.780Z,33.90
2019-02-06T06:40:21.170Z,35.53
2019-02-06T06:42:50.774Z,32.00
2019-02-06T06:45:24.903Z,34.60
2019-02-06T06:47:54.221Z,34.07
2019-02-06T06:50:23.988Z,32.80
2019-02-06T06:52:52.997Z,34.60
2019-02-06T06:55:22.618Z,30.70
2019-02-06T06:57:51.945Z,31.60
2019-02-06T07:00:26.462Z,31.73
2019-02-06T07:02:55.455Z,30.57
2019-02-06T07:05:24.430Z,33.80
2019-02-06T07:07:53.541Z,32.17
2019-02-06T07:10:23.061Z,33.53
2019-02-06T07:12:52.452Z,32.47
2019-02-06T07:15:22.754Z,32.53
2019-02-06T07:17:51.666Z,32.47
2019-02-06T07:20:21.038Z,40.95
2019-02-06T07:22:50.059Z,34.57
2019-02-06T07:25:20.036Z,34.70
2019-02-06T07:27:49.366Z,31.80
2019-02-06T07:30:19.678Z,31.40
2019-02-06T07:32:48.913Z,32.57
2019-02-06T07:35:18.251Z,31.43
2019-02-06T07:37:47.282Z,32.03
2019-02-06T07:40:17.033Z,30.57
2019-02-06T07:42:46.274Z,30.23
2019-02-06T07:45:17.468Z,31.07
2019-02-06T07:47:46.474Z,32.13
2019-02-06T07:50:19.605Z,29.03
2019-02-06T07:52:53.922Z,28.97
2019-02-06T07:55:22.926Z,33.00
2019-02-06T07:57:51.833Z,30.00
2019-02-06T08:00:21.115Z,27.63
2019-02-06T08:02:50.182Z,30.40
2019-02-06T08:05:19.630Z,27.90
2019-02-06T08:07:49.608Z,28.03
2019-02-06T08:10:35.325Z,29.90
2019-02-06T08:13:05.326Z,27.40
2019-02-06T08:15:34.734Z,26.93
2019-02-06T08:18:04.097Z,28.57
2019-02-06T08:20:33.751Z,28.40
2019-02-06T08:23:02.749Z,27.60
2019-02-06T08:25:31.989Z,25.73
2019-02-06T08:28:01.346Z,27.27
2019-02-06T08:30:31.885Z,26.93
2019-02-06T08:33:00.915Z,26.10
2019-02-06T08:35:30.683Z,26.13
2019-02-06T08:38:00.090Z,26.80
2019-02-06T08:40:31.049Z,25.13
2019-02-06T08:43:00.361Z,24.87
2019-02-06T08:45:29.732Z,25.57
2019-02-06T08:47:59.142Z,25.67
2019-02-06T08:50:28.877Z,24.97
2019-02-06T08:52:58.220Z,26.90
2019-02-06T08:55:30.294Z,25.97
2019-02-06T08:57:59.982Z,25.37
2019-02-06T09:00:30.525Z,25.93
2019-02-06T09:02:59.431Z,24.10
2019-02-06T09:05:29.122Z,24.47
2019-02-06T09:07:58.453Z,23.90
2019-02-06T09:10:31.457Z,24.33
2019-02-06T09:13:01.262Z,24.77
2019-02-06T09:15:30.769Z,22.37
2019-02-06T09:18:00.094Z,22.10
2019-02-06T09:20:30.617Z,21.27
2019-02-06T09:23:00.188Z,20.20
2019-02-06T09:25:30.052Z,21.67
2019-02-06T09:27:59.475Z,21.07
2019-02-06T09:30:31.405Z,20.40
2019-02-06T09:33:00.890Z,19.77
2019-02-06T09:35:30.310Z,20.47
2019-02-06T09:37:59.639Z,19.90
2019-02-06T09:40:30.713Z,19.63
2019-02-06T09:43:00.069Z,20.87
2019-02-06T09:45:29.612Z,19.77
2019-02-06T09:47:58.646Z,19.67
2019-02-06T09:50:33.644Z,19.57
2019-02-06T09:53:02.983Z,20.23
2019-02-06T09:55:32.381Z,20.63
2019-02-06T09:58:01.813Z,21.17
2019-02-06T10:00:35.631Z,21.07
2019-02-06T10:03:05.669Z,19.17
2019-02-06T10:05:35.140Z,19.87
2019-02-06T10:08:04.774Z,20.00
2019-02-06T10:10:34.093Z,18.03
2019-02-06T10:13:03.526Z,18.30
2019-02-06T10:15:34.789Z,18.53
2019-02-06T10:18:04.932Z,18.70
2019-02-06T10:20:43.211Z,20.03
2019-02-06T10:23:12.282Z,19.37
2019-02-06T10:25:41.525Z,20.90
2019-02-06T10:28:10.881Z,18.60
2019-02-06T10:30:48.422Z,20.30
2019-02-06T10:33:18.827Z,19.07
2019-02-06T10:35:48.362Z,20.17
2019-02-06T10:38:17.685Z,20.20
2019-02-06T10:40:47.053Z,19.77
2019-02-06T10:43:16.458Z,20.33
2019-02-06T10:45:45.781Z,19.93
2019-02-06T10:48:15.205Z,17.27
2019-02-06T10:50:46.771Z,16.43
2019-02-06T10:53:16.106Z,16.77
2019-02-06T10:55:45.598Z,17.50
2019-02-06T10:58:14.934Z,18.23
2019-02-06T11:00:49.539Z,17.47
2019-02-06T11:03:19.074Z,18.40
2019-02-06T11:05:48.450Z,20.27
2019-02-06T11:08:17.846Z,17.80
2019-02-06T11:10:46.945Z,16.63
2019-02-06T11:13:16.629Z,18.40
2019-02-06T11:15:45.966Z,16.50
2019-02-06T11:18:15.334Z,17.23
2019-02-06T11:20:44.733Z,17.77
2019-02-06T11:23:14.132Z,17.27
2019-02-06T11:25:43.157Z,16.20
2019-02-06T11:28:12.778Z,16.57
2019-02-06T11:30:42.251Z,17.37
2019-02-06T11:33:11.680Z,16.17
2019-02-06T11:35:41.006Z,16.60
2019-02-06T11:38:10.334Z,17.67
2019-02-06T11:40:39.683Z,17.93
2019-02-06T11:43:09.290Z,16.07
2019-02-06T11:45:38.682Z,16.87
2019-02-06T11:48:08.037Z,17.50
2019-02-06T11:50:38.506Z,17.47
2019-02-06T11:53:09.674Z,17.07
2019-02-06T11:55:39.036Z,15.93
2019-02-06T11:58:08.780Z,15.30
2019-02-06T12:00:48.601Z,15.93
2019-02-06T12:03:18.113Z,16.90
2019-02-06T12:05:47.445Z,15.70
2019-02-06T12:08:19.481Z,14.83
2019-02-06T12:10:49.157Z,14.00
2019-02-06T12:13:18.490Z,14.40
2019-02-06T12:15:47.838Z,14.57
2019-02-06T12:18:17.337Z,15.20
2019-02-06T12:20:46.837Z,15.20
2019-02-06T12:23:16.197Z,14.87
2019-02-06T12:25:45.840Z,14.17
2019-02-06T12:28:15.158Z,13.10
2019-02-06T12:30:44.525Z,12.97
2019-02-06T12:33:13.849Z,14.80
2019-02-06T12:35:43.187Z,13.40
2019-02-06T12:38:12.535Z,14.80
2019-02-06T12:40:41.869Z,14.43
2019-02-06T12:43:11.208Z,14.43
2019-02-06T12:45:40.562Z,14.77
2019-02-06T12:48:09.953Z,14.43
2019-02-06T12:50:39.289Z,15.43
2019-02-06T12:53:08.641Z,14.10
2019-02-06T12:55:40.082Z,15.37
2019-02-06T12:58:09.779Z,14.83
2019-02-06T13:00:43.899Z,15.77
2019-02-06T13:03:13.231Z,14.63
2019-02-06T13:05:42.635Z,15.23
2019-02-06T13:08:11.998Z,16.47
2019-02-06T13:10:41.335Z,16.00
2019-02-06T13:13:10.661Z,16.77
2019-02-06T13:15:40.025Z,16.30
2019-02-06T13:18:09.489Z,15.33
2019-02-06T13:20:38.835Z,15.30
2019-02-06T13:23:08.261Z,16.30
2019-02-06T13:25:37.586Z,15.93
2019-02-06T13:28:07.057Z,15.13
2019-02-06T13:30:37.459Z,16.33
2019-02-06T13:33:07.826Z,15.43
2019-02-06T13:35:37.802Z,15.27
2019-02-06T13:38:07.325Z,15.83
2019-02-06T13:40:45.065Z,15.93
2019-02-06T13:43:07.737Z,14.77
2019-02-06T13:45:46.022Z,15.27
2019-02-06T13:48:15.366Z,15.67
2019-02-06T13:50:44.825Z,16.53
2019-02-06T13:53:14.190Z,16.43
2019-02-06T13:55:43.530Z,16.30
2019-02-06T13:58:20.222Z,17.17
2019-02-06T14:00:44.525Z,18.33
2019-02-06T14:03:14.117Z,17.10
2019-02-06T14:05:46.674Z,15.60
2019-02-06T14:08:15.582Z,16.50
2019-02-06T14:10:57.115Z,17.80
2019-02-06T14:13:16.476Z,16.53
2019-02-06T14:15:48.681Z,18.20
2019-02-06T14:18:18.124Z,17.77
2019-02-06T14:20:49.068Z,19.43
2019-02-06T14:23:27.255Z,20.30
2019-02-06T14:26:14.501Z,16.77
2019-02-06T14:29:06.117Z,18.10
2019-02-06T14:31:57.753Z,17.03
2019-02-06T14:34:46.295Z,19.40
2019-02-06T14:37:27.842Z,18.43
2019-02-06T14:40:09.206Z,21.77
2019-02-06T14:42:46.727Z,23.53
2019-02-06T14:45:44.415Z,21.60
2019-02-06T14:48:19.705Z,19.10
2019-02-06T14:51:26.521Z,20.33
2019-02-06T14:54:04.464Z,20.17
2019-02-06T14:56:36.891Z,18.80
2019-02-06T14:59:09.285Z,18.50
2019-02-06T15:01:47.473Z,18.87
2019-02-06T15:04:40.850Z,17.60
2019-02-06T15:07:18.877Z,18.40
2019-02-06T15:10:12.229Z,18.43
2019-02-06T15:12:59.977Z,18.17
2019-02-06T15:15:51.414Z,17.80
2019-02-06T15:18:39.015Z,18.37
2019-02-06T15:21:14.348Z,19.13
2019-02-06T15:24:03.034Z,16.87
2019-02-06T15:26:40.911Z,17.60
2019-02-06T15:29:31.285Z,17.70
2019-02-06T15:32:19.686Z,16.67
2019-02-06T15:35:03.989Z,16.60
2019-02-06T15:37:39.319Z,18.43
2019-02-06T15:40:28.421Z,16.30
2019-02-06T15:43:06.459Z,20.37
2019-02-06T15:45:50.976Z,18.20
2019-02-06T15:48:35.109Z,17.43
2019-02-06T15:51:28.031Z,16.43
2019-02-06T15:54:18.668Z,16.17
2019-02-06T15:57:09.225Z,17.30
2019-02-06T16:00:03.913Z,17.37
2019-02-06T16:02:39.083Z,17.50
2019-02-06T16:05:18.940Z,17.67
2019-02-06T16:08:00.421Z,18.33
2019-02-06T16:10:41.592Z,19.50
2019-02-06T16:13:16.590Z,19.33
2019-02-06T16:15:54.601Z,18.50
2019-02-06T16:18:32.646Z,18.33
2019-02-06T16:21:13.955Z,19.23
2019-02-06T16:23:58.167Z,19.93
2019-02-06T16:26:30.578Z,19.73
2019-02-06T16:29:23.801Z,19.40
2019-02-06T16:32:12.820Z,19.27
2019-02-06T16:34:53.802Z,19.77
2019-02-06T16:37:42.159Z,20.57
2019-02-06T16:40:43.145Z,19.67
2019-02-06T16:43:24.560Z,21.57
2019-02-06T16:46:08.171Z,21.07
2019-02-06T16:48:49.589Z,21.63
2019-02-06T16:51:27.870Z,21.20
2019-02-06T16:54:19.819Z,21.97
2019-02-06T16:57:11.455Z,22.33
2019-02-06T16:59:46.414Z,22.13
2019-02-06T17:02:35.541Z,21.87
2019-02-06T17:05:31.178Z,21.47
2019-02-06T17:08:29.609Z,23.27
2019-02-06T17:11:07.892Z,22.73
2019-02-06T17:13:45.794Z,22.20
2019-02-06T17:16:35.810Z,22.40
2019-02-06T17:19:11.187Z,23.63
2019-02-06T17:21:49.246Z,25.57
2019-02-06T17:24:29.906Z,38.37
2019-02-06T17:27:21.685Z,29.50
2019-02-06T17:29:59.415Z,30.03
2019-02-06T17:32:34.553Z,26.67
2019-02-06T17:35:10.143Z,26.70
2019-02-06T17:38:00.669Z,28.23
2019-02-06T17:41:06.830Z,28.07
2019-02-06T17:43:59.488Z,27.00
2019-02-06T17:46:46.830Z,30.00
2019-02-06T17:49:47.206Z,26.23
2019-02-06T17:52:37.618Z,26.10
2019-02-06T17:55:21.172Z,25.80
2019-02-06T17:57:52.241Z,26.57
2019-02-06T18:00:24.641Z,29.00
2019-02-06T18:02:53.994Z,29.77
2019-02-06T18:05:23.341Z,29.87
2019-02-06T18:07:52.669Z,29.80
2019-02-06T18:10:22.282Z,29.43
2019-02-06T18:12:56.586Z,32.20
2019-02-06T18:15:25.934Z,29.17
2019-02-06T18:17:56.885Z,32.53
2019-02-06T18:20:26.313Z,33.27
2019-02-06T18:22:55.641Z,33.23
2019-02-06T18:25:25.114Z,34.23
2019-02-06T18:27:54.541Z,33.67
2019-02-06T18:30:26.116Z,34.50
2019-02-06T18:32:58.525Z,33.50
2019-02-06T18:35:28.149Z,34.63
2019-02-06T18:37:57.613Z,34.17
2019-02-06T18:40:27.305Z,35.17
2019-02-06T18:42:57.505Z,34.00
2019-02-06T18:45:27.898Z,33.93
2019-02-06T18:48:00.189Z,33.03
2019-02-06T18:50:34.011Z,32.87
2019-02-06T18:53:03.835Z,35.53
2019-02-06T18:55:33.758Z,34.70
2019-02-06T18:58:03.193Z,33.43
2019-02-06T19:00:38.377Z,34.50
2019-02-06T19:03:21.236Z,34.83
2019-02-06T19:05:53.388Z,34.60
2019-02-06T19:08:22.725Z,34.80
2019-02-06T19:10:52.610Z,33.93
2019-02-06T19:13:21.957Z,35.03
2019-02-06T19:15:56.635Z,33.67
2019-02-06T19:18:23.461Z,33.10
2019-02-06T19:20:52.871Z,36.40
2019-02-06T19:23:22.197Z,39.40
2019-02-06T19:25:51.562Z,36.63
2019-02-06T19:28:20.889Z,36.80
2019-02-06T19:30:50.245Z,36.97
2019-02-06T19:33:19.606Z,38.50
2019-02-06T19:35:48.943Z,37.30
2019-02-06T19:38:18.274Z,40.57
2019-02-06T19:40:47.702Z,37.67
2019-02-06T19:43:17.405Z,35.73
2019-02-06T19:45:46.745Z,37.00
2019-02-06T19:48:18.960Z,35.73
2019-02-06T19:50:47.769Z,35.00
2019-02-06T19:53:17.169Z,37.13
2019-02-06T19:55:46.568Z,35.50
2019-02-06T19:58:15.894Z,35.40
2019-02-06T20:00:45.501Z,36.57
2019-02-06T20:03:14.871Z,34.63
2019-02-06T20:05:44.201Z,36.07
2019-02-06T20:08:14.282Z,35.47
2019-02-06T20:10:49.236Z,36.70
2019-02-06T20:13:18.691Z,35.40
2019-02-06T20:15:48.142Z,34.87
2019-02-06T20:18:17.570Z,33.90
2019-02-06T20:20:47.069Z,33.27
2019-02-06T20:23:16.432Z,34.27
2019-02-06T20:25:45.859Z,34.47
2019-02-06T20:28:15.197Z,35.10
2019-02-06T20:30:44.609Z,33.53
2019-02-06T20:33:14.138Z,35.47
2019-02-06T20:35:43.471Z,33.67
2019-02-06T20:38:12.822Z,33.60
2019-02-06T20:40:43.809Z,32.23
2019-02-06T20:43:21.680Z,32.70
2019-02-06T20:45:44.176Z,32.70
2019-02-06T20:48:13.538Z,32.40
2019-02-06T20:50:43.150Z,32.00
2019-02-06T20:53:12.486Z,34.70
2019-02-06T20:55:41.846Z,32.13
2019-02-06T20:58:11.177Z,32.53
2019-02-06T21:00:41.949Z,33.43
2019-02-06T21:03:11.298Z,34.67
2019-02-06T21:05:40.979Z,32.90
2019-02-06T21:08:10.303Z,30.73
2019-02-06T21:10:39.686Z,31.43
2019-02-06T21:13:09.035Z,30.20
2019-02-06T21:15:38.437Z,29.70
2019-02-06T21:18:07.803Z,32.40
2019-02-06T21:20:37.138Z,31.83
2019-02-06T21:23:06.549Z,31.50
2019-02-06T21:25:35.975Z,32.00
2019-02-06T21:28:05.314Z,30.63
2019-02-06T21:30:39.590Z,34.23
2019-02-06T21:33:08.962Z,32.27
2019-02-06T21:35:38.744Z,30.97
2019-02-06T21:38:08.075Z,32.47
2019-02-06T21:40:37.911Z,31.23
2019-02-06T21:43:07.618Z,33.70
2019-02-06T21:45:36.945Z,32.53
2019-02-06T21:48:06.645Z,33.17
2019-02-06T21:50:36.361Z,34.10
2019-02-06T21:53:05.695Z,35.33
2019-02-06T21:55:35.056Z,37.53
2019-02-06T21:58:04.688Z,45.80
2019-02-06T22:00:36.913Z,54.53
2019-02-06T22:03:06.338Z,53.17
2019-02-06T22:05:36.050Z,50.23
2019-02-06T22:08:05.526Z,46.40
2019-02-06T22:10:34.898Z,49.80
2019-02-06T22:13:04.676Z,56.00
2019-02-06T22:15:34.123Z,47.30
2019-02-06T22:18:03.610Z,47.13
2019-02-06T22:20:32.942Z,49.23
2019-02-06T22:23:02.285Z,50.70
2019-02-06T22:25:31.654Z,45.00
2019-02-06T22:28:00.989Z,49.87
2019-02-06T22:30:30.599Z,44.93
2019-02-06T22:33:00.038Z,42.03
2019-02-06T22:35:29.371Z,40.10
2019-02-06T22:37:58.723Z,38.57
2019-02-06T22:40:28.165Z,39.33
2019-02-06T22:42:57.498Z,38.10
2019-02-06T22:45:28.367Z,38.37
2019-02-06T22:47:57.717Z,39.37
2019-02-06T22:50:29.042Z,37.10
2019-02-06T22:52:58.482Z,40.50
2019-02-06T22:55:27.881Z,40.27
2019-02-06T22:57:57.227Z,39.33
2019-02-06T23:00:43.042Z,39.73
2019-02-06T23:03:12.508Z,37.90
2019-02-06T23:05:41.843Z,38.13
2019-02-06T23:08:11.267Z,39.80
2019-02-06T23:10:40.594Z,38.77
2019-02-06T23:13:10.006Z,40.80
2019-02-06T23:15:39.650Z,42.63
2019-02-06T23:18:09.037Z,39.60
2019-02-06T23:20:38.505Z,41.73
2019-02-06T23:23:07.869Z,42.47
2019-02-06T23:25:37.198Z,42.90
2019-02-06T23:28:06.596Z,43.67
2019-02-06T23:30:36.130Z,43.30
2019-02-06T23:33:05.541Z,40.77
2019-02-06T23:35:34.866Z,44.17
2019-02-06T23:38:04.552Z,41.40
2019-02-06T23:40:33.921Z,43.40
2019-02-06T23:43:03.809Z,42.90
2019-02-06T23:45:33.174Z,41.00
2019-02-06T23:48:02.506Z,43.67
2019-02-06T23:50:31.846Z,41.03
2019-02-06T23:53:01.201Z,39.63
2019-02-06T23:55:30.531Z,41.97
2019-02-06T23:58:00.144Z,40.47
